sensor_id;sensor_type;location;lat;lon;timestamp;P1;durP1;ratioP1;P2;durP2;ratioP2
5801;SDS011;2927;49.366;8.530;2023-07-16T00:00:05;11.07;;;5.67;;
5801;SDS011;2927;49.366;8.530;2023-07-16T00:02:33;8.40;;;4.80;;
5801;SDS011;2927;49.366;8.530;2023-07-16T00:04:59;9.20;;;4.83;;
5801;SDS011;2927;49.366;8.530;2023-07-16T00:07:25;9.87;;;4.50;;
5801;SDS011;2927;49.366;8.530;2023-07-16T00:09:51;8.10;;;5.70;;
5801;SDS011;2927;49.366;8.530;2023-07-16T00:12:16;6.13;;;4.83;;
5801;SDS011;2927;49.366;8.530;2023-07-16T00:14:42;6.30;;;4.10;;
5801;SDS011;2927;49.366;8.530;2023-07-16T00:17:08;6.10;;;5.30;;
5801;SDS011;2927;49.366;8.530;2023-07-16T00:19:33;8.80;;;5.07;;
5801;SDS011;2927;49.366;8.530;2023-07-16T00:21:59;4.20;;;3.90;;
5801;SDS011;2927;49.366;8.530;2023-07-16T00:24:24;6.57;;;4.20;;
5801;SDS011;2927;49.366;8.530;2023-07-16T00:26:50;5.63;;;3.80;;
5801;SDS011;2927;49.366;8.530;2023-07-16T00:29:16;6.53;;;3.80;;
5801;SDS011;2927;49.366;8.530;2023-07-16T00:31:41;4.10;;;3.27;;
5801;SDS011;2927;49.366;8.530;2023-07-16T00:34:07;6.90;;;3.90;;
5801;SDS011;2927;49.366;8.530;2023-07-16T00:36:33;4.57;;;4.07;;
5801;SDS011;2927;49.366;8.530;2023-07-16T00:38:58;4.17;;;3.43;;
5801;SDS011;2927;49.366;8.530;2023-07-16T00:41:24;4.50;;;3.23;;
5801;SDS011;2927;49.366;8.530;2023-07-16T00:43:49;5.07;;;3.50;;
5801;SDS011;2927;49.366;8.530;2023-07-16T00:46:15;4.90;;;3.20;;
5801;SDS011;2927;49.366;8.530;2023-07-16T00:48:41;4.07;;;3.50;;
5801;SDS011;2927;49.366;8.530;2023-07-16T00:51:08;5.23;;;3.20;;
5801;SDS011;2927;49.366;8.530;2023-07-16T00:53:33;7.63;;;3.70;;
5801;SDS011;2927;49.366;8.530;2023-07-16T00:55:59;5.60;;;3.73;;
5801;SDS011;2927;49.366;8.530;2023-07-16T00:58:25;4.10;;;2.93;;
5801;SDS011;2927;49.366;8.530;2023-07-16T01:00:51;6.03;;;4.50;;
5801;SDS011;2927;49.366;8.530;2023-07-16T01:03:16;4.20;;;3.80;;
5801;SDS011;2927;49.366;8.530;2023-07-16T01:05:47;13.13;;;3.97;;
5801;SDS011;2927;49.366;8.530;2023-07-16T01:08:41;5.10;;;4.00;;
5801;SDS011;2927;49.366;8.530;2023-07-16T01:11:11;8.33;;;4.10;;
5801;SDS011;2927;49.366;8.530;2023-07-16T01:13:39;9.60;;;4.30;;
5801;SDS011;2927;49.366;8.530;2023-07-16T01:16:05;5.73;;;3.70;;
5801;SDS011;2927;49.366;8.530;2023-07-16T01:18:31;7.30;;;4.60;;
5801;SDS011;2927;49.366;8.530;2023-07-16T01:20:57;3.97;;;3.57;;
5801;SDS011;2927;49.366;8.530;2023-07-16T01:23:27;5.53;;;4.50;;
5801;SDS011;2927;49.366;8.530;2023-07-16T01:26:31;5.30;;;3.77;;
5801;SDS011;2927;49.366;8.530;2023-07-16T01:31:41;3.97;;;3.40;;
5801;SDS011;2927;49.366;8.530;2023-07-16T01:34:09;4.37;;;3.20;;
5801;SDS011;2927;49.366;8.530;2023-07-16T01:36:35;7.10;;;3.20;;
5801;SDS011;2927;49.366;8.530;2023-07-16T01:39:02;4.17;;;2.80;;
5801;SDS011;2927;49.366;8.530;2023-07-16T01:41:28;5.03;;;3.03;;
5801;SDS011;2927;49.366;8.530;2023-07-16T01:43:54;3.67;;;3.10;;
5801;SDS011;2927;49.366;8.530;2023-07-16T01:46:19;5.10;;;3.20;;
5801;SDS011;2927;49.366;8.530;2023-07-16T01:48:45;4.60;;;3.87;;
5801;SDS011;2927;49.366;8.530;2023-07-16T01:51:11;3.03;;;2.60;;
5801;SDS011;2927;49.366;8.530;2023-07-16T01:53:39;4.20;;;2.23;;
5801;SDS011;2927;49.366;8.530;2023-07-16T01:56:07;4.83;;;2.60;;
5801;SDS011;2927;49.366;8.530;2023-07-16T01:58:33;2.43;;;2.23;;
5801;SDS011;2927;49.366;8.530;2023-07-16T02:00:58;2.70;;;2.33;;
5801;SDS011;2927;49.366;8.530;2023-07-16T02:03:24;5.57;;;2.17;;
5801;SDS011;2927;49.366;8.530;2023-07-16T02:05:50;1.97;;;1.87;;
5801;SDS011;2927;49.366;8.530;2023-07-16T02:08:16;3.47;;;2.30;;
5801;SDS011;2927;49.366;8.530;2023-07-16T02:10:43;2.20;;;2.00;;
5801;SDS011;2927;49.366;8.530;2023-07-16T02:13:09;9.87;;;2.50;;
5801;SDS011;2927;49.366;8.530;2023-07-16T02:15:34;2.83;;;1.97;;
5801;SDS011;2927;49.366;8.530;2023-07-16T02:18:00;3.90;;;1.90;;
5801;SDS011;2927;49.366;8.530;2023-07-16T02:20:25;3.70;;;1.90;;
5801;SDS011;2927;49.366;8.530;2023-07-16T02:22:51;3.40;;;1.57;;
5801;SDS011;2927;49.366;8.530;2023-07-16T02:25:16;3.50;;;1.83;;
5801;SDS011;2927;49.366;8.530;2023-07-16T02:27:42;4.63;;;1.53;;
5801;SDS011;2927;49.366;8.530;2023-07-16T02:30:07;4.03;;;2.00;;
5801;SDS011;2927;49.366;8.530;2023-07-16T02:32:33;4.87;;;2.00;;
5801;SDS011;2927;49.366;8.530;2023-07-16T02:34:59;2.47;;;1.57;;
5801;SDS011;2927;49.366;8.530;2023-07-16T02:37:25;5.40;;;1.77;;
5801;SDS011;2927;49.366;8.530;2023-07-16T02:39:51;4.33;;;1.33;;
5801;SDS011;2927;49.366;8.530;2023-07-16T02:42:16;7.20;;;2.00;;
5801;SDS011;2927;49.366;8.530;2023-07-16T02:44:42;1.73;;;1.60;;
5801;SDS011;2927;49.366;8.530;2023-07-16T02:47:09;9.27;;;2.40;;
5801;SDS011;2927;49.366;8.530;2023-07-16T02:49:36;3.50;;;1.90;;
5801;SDS011;2927;49.366;8.530;2023-07-16T02:52:02;6.07;;;2.10;;
5801;SDS011;2927;49.366;8.530;2023-07-16T02:54:28;6.17;;;1.97;;
5801;SDS011;2927;49.366;8.530;2023-07-16T02:56:53;5.83;;;2.37;;
5801;SDS011;2927;49.366;8.530;2023-07-16T02:59:19;10.83;;;2.60;;
5801;SDS011;2927;49.366;8.530;2023-07-16T03:01:44;4.30;;;1.57;;
5801;SDS011;2927;49.366;8.530;2023-07-16T03:04:10;5.00;;;2.07;;
5801;SDS011;2927;49.366;8.530;2023-07-16T03:06:35;4.10;;;1.90;;
5801;SDS011;2927;49.366;8.530;2023-07-16T03:09:01;2.87;;;1.90;;
5801;SDS011;2927;49.366;8.530;2023-07-16T03:11:27;8.30;;;2.23;;
5801;SDS011;2927;49.366;8.530;2023-07-16T03:13:52;3.10;;;1.60;;
5801;SDS011;2927;49.366;8.530;2023-07-16T03:16:18;3.33;;;1.87;;
5801;SDS011;2927;49.366;8.530;2023-07-16T03:18:44;4.77;;;1.93;;
5801;SDS011;2927;49.366;8.530;2023-07-16T03:21:10;4.03;;;1.47;;
5801;SDS011;2927;49.366;8.530;2023-07-16T03:23:36;8.70;;;1.57;;
5801;SDS011;2927;49.366;8.530;2023-07-16T03:26:01;5.90;;;2.10;;
5801;SDS011;2927;49.366;8.530;2023-07-16T03:28:27;7.40;;;2.07;;
5801;SDS011;2927;49.366;8.530;2023-07-16T03:30:52;5.80;;;1.87;;
5801;SDS011;2927;49.366;8.530;2023-07-16T03:33:19;6.03;;;1.80;;
5801;SDS011;2927;49.366;8.530;2023-07-16T03:35:45;6.97;;;2.17;;
5801;SDS011;2927;49.366;8.530;2023-07-16T03:38:11;7.93;;;1.67;;
5801;SDS011;2927;49.366;8.530;2023-07-16T03:40:38;4.90;;;2.30;;
5801;SDS011;2927;49.366;8.530;2023-07-16T03:43:03;5.80;;;2.13;;
5801;SDS011;2927;49.366;8.530;2023-07-16T03:45:29;2.53;;;1.90;;
5801;SDS011;2927;49.366;8.530;2023-07-16T03:47:55;2.20;;;1.57;;
5801;SDS011;2927;49.366;8.530;2023-07-16T03:50:20;6.00;;;1.87;;
5801;SDS011;2927;49.366;8.530;2023-07-16T03:52:46;4.00;;;2.40;;
5801;SDS011;2927;49.366;8.530;2023-07-16T03:55:12;6.10;;;2.37;;
5801;SDS011;2927;49.366;8.530;2023-07-16T03:57:37;5.03;;;2.00;;
5801;SDS011;2927;49.366;8.530;2023-07-16T04:00:03;6.90;;;2.33;;
5801;SDS011;2927;49.366;8.530;2023-07-16T04:02:32;7.97;;;2.80;;
5801;SDS011;2927;49.366;8.530;2023-07-16T04:04:58;8.40;;;2.63;;
5801;SDS011;2927;49.366;8.530;2023-07-16T04:07:24;5.60;;;2.00;;
5801;SDS011;2927;49.366;8.530;2023-07-16T04:09:49;4.73;;;2.10;;
5801;SDS011;2927;49.366;8.530;2023-07-16T04:12:16;6.37;;;2.97;;
5801;SDS011;2927;49.366;8.530;2023-07-16T04:14:41;3.80;;;2.13;;
5801;SDS011;2927;49.366;8.530;2023-07-16T04:17:07;4.80;;;1.80;;
5801;SDS011;2927;49.366;8.530;2023-07-16T04:19:32;5.70;;;2.30;;
5801;SDS011;2927;49.366;8.530;2023-07-16T04:21:58;6.90;;;2.43;;
5801;SDS011;2927;49.366;8.530;2023-07-16T04:24:24;8.03;;;2.43;;
5801;SDS011;2927;49.366;8.530;2023-07-16T04:26:51;3.10;;;1.93;;
5801;SDS011;2927;49.366;8.530;2023-07-16T04:29:17;3.67;;;2.10;;
5801;SDS011;2927;49.366;8.530;2023-07-16T04:31:43;7.30;;;3.00;;
5801;SDS011;2927;49.366;8.530;2023-07-16T04:34:09;3.40;;;2.27;;
5801;SDS011;2927;49.366;8.530;2023-07-16T04:36:34;15.37;;;3.63;;
5801;SDS011;2927;49.366;8.530;2023-07-16T04:38:59;20.93;;;4.10;;
5801;SDS011;2927;49.366;8.530;2023-07-16T04:41:25;6.70;;;2.37;;
5801;SDS011;2927;49.366;8.530;2023-07-16T04:43:51;13.77;;;3.13;;
5801;SDS011;2927;49.366;8.530;2023-07-16T04:46:16;5.07;;;3.27;;
5801;SDS011;2927;49.366;8.530;2023-07-16T04:48:42;12.60;;;3.77;;
5801;SDS011;2927;49.366;8.530;2023-07-16T04:51:07;7.37;;;3.07;;
5801;SDS011;2927;49.366;8.530;2023-07-16T04:53:33;13.20;;;3.63;;
5801;SDS011;2927;49.366;8.530;2023-07-16T04:55:58;7.20;;;3.67;;
5801;SDS011;2927;49.366;8.530;2023-07-16T04:58:24;5.90;;;2.83;;
5801;SDS011;2927;49.366;8.530;2023-07-16T05:00:49;9.60;;;2.80;;
5801;SDS011;2927;49.366;8.530;2023-07-16T05:03:16;8.40;;;2.80;;
5801;SDS011;2927;49.366;8.530;2023-07-16T05:05:41;4.00;;;2.60;;
5801;SDS011;2927;49.366;8.530;2023-07-16T05:08:07;9.00;;;2.90;;
5801;SDS011;2927;49.366;8.530;2023-07-16T05:10:33;3.53;;;1.93;;
5801;SDS011;2927;49.366;8.530;2023-07-16T05:12:58;2.50;;;1.80;;
5801;SDS011;2927;49.366;8.530;2023-07-16T05:15:24;7.70;;;2.63;;
5801;SDS011;2927;49.366;8.530;2023-07-16T05:17:50;3.43;;;2.40;;
5801;SDS011;2927;49.366;8.530;2023-07-16T05:20:15;4.93;;;2.13;;
5801;SDS011;2927;49.366;8.530;2023-07-16T05:22:41;10.30;;;2.23;;
5801;SDS011;2927;49.366;8.530;2023-07-16T05:25:07;3.23;;;1.90;;
5801;SDS011;2927;49.366;8.530;2023-07-16T05:27:33;3.83;;;2.13;;
5801;SDS011;2927;49.366;8.530;2023-07-16T05:29:58;5.27;;;1.60;;
5801;SDS011;2927;49.366;8.530;2023-07-16T05:32:24;4.40;;;2.30;;
5801;SDS011;2927;49.366;8.530;2023-07-16T05:34:49;6.27;;;2.80;;
5801;SDS011;2927;49.366;8.530;2023-07-16T05:37:15;3.53;;;2.10;;
5801;SDS011;2927;49.366;8.530;2023-07-16T05:39:40;3.50;;;1.93;;
5801;SDS011;2927;49.366;8.530;2023-07-16T05:42:06;10.80;;;3.07;;
5801;SDS011;2927;49.366;8.530;2023-07-16T05:44:32;4.90;;;2.47;;
5801;SDS011;2927;49.366;8.530;2023-07-16T05:46:58;12.13;;;2.00;;
5801;SDS011;2927;49.366;8.530;2023-07-16T05:49:24;4.97;;;1.90;;
5801;SDS011;2927;49.366;8.530;2023-07-16T05:51:51;9.20;;;2.57;;
5801;SDS011;2927;49.366;8.530;2023-07-16T05:54:16;5.30;;;1.70;;
5801;SDS011;2927;49.366;8.530;2023-07-16T05:56:42;6.20;;;1.63;;
5801;SDS011;2927;49.366;8.530;2023-07-16T05:59:08;6.40;;;1.87;;
5801;SDS011;2927;49.366;8.530;2023-07-16T06:01:33;4.50;;;1.97;;
5801;SDS011;2927;49.366;8.530;2023-07-16T06:03:59;8.90;;;1.90;;
5801;SDS011;2927;49.366;8.530;2023-07-16T06:06:26;5.00;;;1.70;;
5801;SDS011;2927;49.366;8.530;2023-07-16T06:08:53;7.57;;;1.90;;
5801;SDS011;2927;49.366;8.530;2023-07-16T06:11:18;5.67;;;1.50;;
5801;SDS011;2927;49.366;8.530;2023-07-16T06:13:44;6.93;;;1.93;;
5801;SDS011;2927;49.366;8.530;2023-07-16T06:16:09;5.77;;;1.80;;
5801;SDS011;2927;49.366;8.530;2023-07-16T06:18:35;6.47;;;2.30;;
5801;SDS011;2927;49.366;8.530;2023-07-16T06:21:00;5.43;;;2.13;;
5801;SDS011;2927;49.366;8.530;2023-07-16T06:23:26;4.63;;;1.70;;
5801;SDS011;2927;49.366;8.530;2023-07-16T06:25:55;13.83;;;2.20;;
5801;SDS011;2927;49.366;8.530;2023-07-16T06:28:20;4.30;;;2.13;;
5801;SDS011;2927;49.366;8.530;2023-07-16T06:30:46;3.27;;;1.27;;
5801;SDS011;2927;49.366;8.530;2023-07-16T06:33:12;3.03;;;1.63;;
5801;SDS011;2927;49.366;8.530;2023-07-16T06:35:37;3.70;;;1.77;;
5801;SDS011;2927;49.366;8.530;2023-07-16T06:38:03;7.15;;;2.00;;
5801;SDS011;2927;49.366;8.530;2023-07-16T06:40:29;4.38;;;1.70;;
5801;SDS011;2927;49.366;8.530;2023-07-16T06:42:55;2.53;;;1.52;;
5801;SDS011;2927;49.366;8.530;2023-07-16T06:45:21;5.07;;;2.10;;
5801;SDS011;2927;49.366;8.530;2023-07-16T06:47:47;5.60;;;1.67;;
5801;SDS011;2927;49.366;8.530;2023-07-16T06:50:32;2.53;;;1.60;;
5801;SDS011;2927;49.366;8.530;2023-07-16T06:52:58;3.33;;;1.70;;
5801;SDS011;2927;49.366;8.530;2023-07-16T06:55:23;4.60;;;1.70;;
5801;SDS011;2927;49.366;8.530;2023-07-16T06:57:49;7.20;;;1.93;;
5801;SDS011;2927;49.366;8.530;2023-07-16T07:00:14;5.17;;;1.90;;
5801;SDS011;2927;49.366;8.530;2023-07-16T07:02:40;3.00;;;1.70;;
5801;SDS011;2927;49.366;8.530;2023-07-16T07:05:06;5.13;;;2.30;;
5801;SDS011;2927;49.366;8.530;2023-07-16T07:07:32;4.47;;;1.53;;
5801;SDS011;2927;49.366;8.530;2023-07-16T07:09:58;8.20;;;2.20;;
5801;SDS011;2927;49.366;8.530;2023-07-16T07:12:23;5.93;;;2.07;;
5801;SDS011;2927;49.366;8.530;2023-07-16T07:14:49;4.27;;;2.13;;
5801;SDS011;2927;49.366;8.530;2023-07-16T07:17:14;4.40;;;1.93;;
5801;SDS011;2927;49.366;8.530;2023-07-16T07:19:41;4.30;;;1.87;;
5801;SDS011;2927;49.366;8.530;2023-07-16T07:22:06;3.50;;;2.00;;
5801;SDS011;2927;49.366;8.530;2023-07-16T07:24:32;7.37;;;2.30;;
5801;SDS011;2927;49.366;8.530;2023-07-16T07:26:58;3.50;;;1.53;;
5801;SDS011;2927;49.366;8.530;2023-07-16T07:29:23;6.43;;;1.93;;
5801;SDS011;2927;49.366;8.530;2023-07-16T07:31:49;7.57;;;2.27;;
5801;SDS011;2927;49.366;8.530;2023-07-16T07:34:15;8.13;;;2.00;;
5801;SDS011;2927;49.366;8.530;2023-07-16T07:36:40;7.83;;;1.77;;
5801;SDS011;2927;49.366;8.530;2023-07-16T07:39:06;6.03;;;2.57;;
5801;SDS011;2927;49.366;8.530;2023-07-16T07:41:32;8.65;;;2.28;;
5801;SDS011;2927;49.366;8.530;2023-07-16T07:43:59;5.35;;;1.90;;
5801;SDS011;2927;49.366;8.530;2023-07-16T07:46:24;4.28;;;2.00;;
5801;SDS011;2927;49.366;8.530;2023-07-16T07:48:50;2.88;;;1.48;;
5801;SDS011;2927;49.366;8.530;2023-07-16T07:51:15;4.95;;;2.28;;
5801;SDS011;2927;49.366;8.530;2023-07-16T07:53:41;5.13;;;2.45;;
5801;SDS011;2927;49.366;8.530;2023-07-16T07:56:07;7.22;;;2.20;;
5801;SDS011;2927;49.366;8.530;2023-07-16T07:58:32;5.20;;;2.03;;
5801;SDS011;2927;49.366;8.530;2023-07-16T08:01:03;2.67;;;1.77;;
5801;SDS011;2927;49.366;8.530;2023-07-16T08:03:30;6.55;;;2.28;;
5801;SDS011;2927;49.366;8.530;2023-07-16T08:05:56;6.60;;;2.08;;
5801;SDS011;2927;49.366;8.530;2023-07-16T08:08:21;5.78;;;2.78;;
5801;SDS011;2927;49.366;8.530;2023-07-16T08:10:47;5.82;;;2.55;;
5801;SDS011;2927;49.366;8.530;2023-07-16T08:13:12;10.80;;;2.40;;
5801;SDS011;2927;49.366;8.530;2023-07-16T08:15:38;3.92;;;2.03;;
5801;SDS011;2927;49.366;8.530;2023-07-16T08:18:04;11.20;;;2.57;;
5801;SDS011;2927;49.366;8.530;2023-07-16T08:20:29;4.33;;;2.30;;
5801;SDS011;2927;49.366;8.530;2023-07-16T08:22:55;6.33;;;2.00;;
5801;SDS011;2927;49.366;8.530;2023-07-16T08:25:21;8.90;;;2.50;;
5801;SDS011;2927;49.366;8.530;2023-07-16T08:27:46;6.53;;;3.07;;
5801;SDS011;2927;49.366;8.530;2023-07-16T08:30:13;3.80;;;2.30;;
5801;SDS011;2927;49.366;8.530;2023-07-16T08:32:39;3.13;;;2.00;;
5801;SDS011;2927;49.366;8.530;2023-07-16T08:35:05;3.50;;;1.97;;
5801;SDS011;2927;49.366;8.530;2023-07-16T08:37:31;5.10;;;2.33;;
5801;SDS011;2927;49.366;8.530;2023-07-16T08:39:56;5.27;;;2.57;;
5801;SDS011;2927;49.366;8.530;2023-07-16T08:42:22;5.80;;;1.90;;
5801;SDS011;2927;49.366;8.530;2023-07-16T08:44:48;5.47;;;2.33;;
5801;SDS011;2927;49.366;8.530;2023-07-16T08:47:15;3.38;;;2.28;;
5801;SDS011;2927;49.366;8.530;2023-07-16T08:49:41;4.07;;;2.28;;
5801;SDS011;2927;49.366;8.530;2023-07-16T08:52:15;3.97;;;2.13;;
5801;SDS011;2927;49.366;8.530;2023-07-16T08:54:42;4.20;;;2.00;;
5801;SDS011;2927;49.366;8.530;2023-07-16T08:57:08;6.18;;;2.40;;
5801;SDS011;2927;49.366;8.530;2023-07-16T08:59:34;4.22;;;2.45;;
5801;SDS011;2927;49.366;8.530;2023-07-16T09:02:02;3.53;;;1.90;;
5801;SDS011;2927;49.366;8.530;2023-07-16T09:04:28;6.95;;;2.30;;
5801;SDS011;2927;49.366;8.530;2023-07-16T09:06:54;5.78;;;1.70;;
5801;SDS011;2927;49.366;8.530;2023-07-16T09:09:21;5.65;;;2.17;;
5801;SDS011;2927;49.366;8.530;2023-07-16T09:11:48;3.58;;;1.90;;
5801;SDS011;2927;49.366;8.530;2023-07-16T09:14:20;3.08;;;1.80;;
5801;SDS011;2927;49.366;8.530;2023-07-16T09:16:50;6.32;;;2.20;;
5801;SDS011;2927;49.366;8.530;2023-07-16T09:19:16;9.88;;;2.53;;
5801;SDS011;2927;49.366;8.530;2023-07-16T09:21:48;3.78;;;1.58;;
5801;SDS011;2927;49.366;8.530;2023-07-16T09:24:14;5.38;;;2.20;;
5801;SDS011;2927;49.366;8.530;2023-07-16T09:26:50;3.13;;;1.85;;
5801;SDS011;2927;49.366;8.530;2023-07-16T09:29:17;5.68;;;2.75;;
5801;SDS011;2927;49.366;8.530;2023-07-16T09:34:32;8.20;;;2.60;;
5801;SDS011;2927;49.366;8.530;2023-07-16T09:36:58;4.25;;;1.75;;
5801;SDS011;2927;49.366;8.530;2023-07-16T09:39:26;2.03;;;1.67;;
5801;SDS011;2927;49.366;8.530;2023-07-16T09:41:52;3.75;;;1.95;;
5801;SDS011;2927;49.366;8.530;2023-07-16T09:44:18;3.38;;;2.38;;
5801;SDS011;2927;49.366;8.530;2023-07-16T09:46:44;4.65;;;2.03;;
5801;SDS011;2927;49.366;8.530;2023-07-16T09:49:11;6.05;;;2.25;;
5801;SDS011;2927;49.366;8.530;2023-07-16T09:51:37;3.08;;;2.53;;
5801;SDS011;2927;49.366;8.530;2023-07-16T09:54:04;6.30;;;2.10;;
5801;SDS011;2927;49.366;8.530;2023-07-16T09:56:49;3.58;;;2.00;;
5801;SDS011;2927;49.366;8.530;2023-07-16T09:59:20;8.02;;;2.90;;
5801;SDS011;2927;49.366;8.530;2023-07-16T10:01:48;4.22;;;2.17;;
5801;SDS011;2927;49.366;8.530;2023-07-16T10:04:16;1.83;;;1.63;;
5801;SDS011;2927;49.366;8.530;2023-07-16T10:06:58;9.27;;;2.28;;
5801;SDS011;2927;49.366;8.530;2023-07-16T10:12:15;4.32;;;2.20;;
5801;SDS011;2927;49.366;8.530;2023-07-16T10:14:43;3.38;;;2.58;;
5801;SDS011;2927;49.366;8.530;2023-07-16T10:17:16;4.95;;;2.25;;
5801;SDS011;2927;49.366;8.530;2023-07-16T10:20:16;5.05;;;2.00;;
5801;SDS011;2927;49.366;8.530;2023-07-16T10:22:36;2.95;;;1.75;;
5801;SDS011;2927;49.366;8.530;2023-07-16T10:25:10;3.85;;;2.10;;
5801;SDS011;2927;49.366;8.530;2023-07-16T10:27:47;5.43;;;1.85;;
5801;SDS011;2927;49.366;8.530;2023-07-16T10:30:14;5.18;;;2.30;;
5801;SDS011;2927;49.366;8.530;2023-07-16T10:33:02;3.90;;;2.65;;
5801;SDS011;2927;49.366;8.530;2023-07-16T10:35:36;7.05;;;2.28;;
5801;SDS011;2927;49.366;8.530;2023-07-16T10:38:06;6.18;;;1.92;;
5801;SDS011;2927;49.366;8.530;2023-07-16T10:40:32;6.85;;;2.28;;
5801;SDS011;2927;49.366;8.530;2023-07-16T10:42:57;3.53;;;1.70;;
5801;SDS011;2927;49.366;8.530;2023-07-16T10:45:23;9.48;;;2.80;;
5801;SDS011;2927;49.366;8.530;2023-07-16T10:47:53;4.85;;;1.88;;
5801;SDS011;2927;49.366;8.530;2023-07-16T10:50:19;5.20;;;2.40;;
5801;SDS011;2927;49.366;8.530;2023-07-16T10:52:52;3.42;;;1.58;;
5801;SDS011;2927;49.366;8.530;2023-07-16T10:55:18;5.57;;;2.20;;
5801;SDS011;2927;49.366;8.530;2023-07-16T10:57:46;4.00;;;1.88;;
5801;SDS011;2927;49.366;8.530;2023-07-16T11:00:13;3.70;;;1.90;;
5801;SDS011;2927;49.366;8.530;2023-07-16T11:02:40;7.13;;;2.60;;
5801;SDS011;2927;49.366;8.530;2023-07-16T11:05:09;5.77;;;2.23;;
5801;SDS011;2927;49.366;8.530;2023-07-16T11:07:36;5.27;;;1.93;;
5801;SDS011;2927;49.366;8.530;2023-07-16T11:10:02;6.97;;;1.90;;
5801;SDS011;2927;49.366;8.530;2023-07-16T11:12:28;4.90;;;2.27;;
5801;SDS011;2927;49.366;8.530;2023-07-16T11:14:54;3.60;;;2.10;;
5801;SDS011;2927;49.366;8.530;2023-07-16T11:17:21;6.93;;;2.20;;
5801;SDS011;2927;49.366;8.530;2023-07-16T11:19:49;9.40;;;2.20;;
5801;SDS011;2927;49.366;8.530;2023-07-16T11:22:16;6.07;;;1.97;;
5801;SDS011;2927;49.366;8.530;2023-07-16T11:24:45;8.47;;;2.47;;
5801;SDS011;2927;49.366;8.530;2023-07-16T11:29:55;7.33;;;2.03;;
5801;SDS011;2927;49.366;8.530;2023-07-16T11:32:26;8.27;;;2.70;;
5801;SDS011;2927;49.366;8.530;2023-07-16T11:34:55;9.53;;;3.27;;
5801;SDS011;2927;49.366;8.530;2023-07-16T11:37:23;6.50;;;2.90;;
5801;SDS011;2927;49.366;8.530;2023-07-16T11:39:49;5.00;;;2.70;;
5801;SDS011;2927;49.366;8.530;2023-07-16T11:42:19;4.90;;;1.93;;
5801;SDS011;2927;49.366;8.530;2023-07-16T11:45:15;3.97;;;2.47;;
5801;SDS011;2927;49.366;8.530;2023-07-16T11:47:45;4.33;;;2.00;;
5801;SDS011;2927;49.366;8.530;2023-07-16T11:50:11;5.90;;;2.40;;
5801;SDS011;2927;49.366;8.530;2023-07-16T11:52:38;7.80;;;2.83;;
5801;SDS011;2927;49.366;8.530;2023-07-16T11:55:04;4.83;;;1.80;;
5801;SDS011;2927;49.366;8.530;2023-07-16T11:57:30;4.30;;;2.20;;
5801;SDS011;2927;49.366;8.530;2023-07-16T11:59:55;8.17;;;2.23;;
5801;SDS011;2927;49.366;8.530;2023-07-16T12:02:21;7.40;;;2.00;;
5801;SDS011;2927;49.366;8.530;2023-07-16T12:04:47;4.43;;;2.33;;
5801;SDS011;2927;49.366;8.530;2023-07-16T12:07:13;5.00;;;2.37;;
5801;SDS011;2927;49.366;8.530;2023-07-16T12:09:39;9.20;;;2.60;;
5801;SDS011;2927;49.366;8.530;2023-07-16T12:12:05;8.37;;;2.03;;
5801;SDS011;2927;49.366;8.530;2023-07-16T12:14:31;6.10;;;2.30;;
5801;SDS011;2927;49.366;8.530;2023-07-16T12:16:57;5.47;;;2.60;;
5801;SDS011;2927;49.366;8.530;2023-07-16T12:19:22;5.00;;;2.37;;
5801;SDS011;2927;49.366;8.530;2023-07-16T12:21:49;6.00;;;2.10;;
5801;SDS011;2927;49.366;8.530;2023-07-16T12:24:15;6.63;;;2.43;;
5801;SDS011;2927;49.366;8.530;2023-07-16T12:26:41;4.17;;;1.77;;
5801;SDS011;2927;49.366;8.530;2023-07-16T12:29:07;5.90;;;2.00;;
5801;SDS011;2927;49.366;8.530;2023-07-16T12:31:32;6.80;;;2.17;;
5801;SDS011;2927;49.366;8.530;2023-07-16T12:33:59;7.67;;;2.10;;
5801;SDS011;2927;49.366;8.530;2023-07-16T12:36:25;4.40;;;2.10;;
5801;SDS011;2927;49.366;8.530;2023-07-16T12:38:50;2.90;;;1.97;;
5801;SDS011;2927;49.366;8.530;2023-07-16T12:41:16;5.13;;;1.83;;
5801;SDS011;2927;49.366;8.530;2023-07-16T12:43:42;3.27;;;2.10;;
5801;SDS011;2927;49.366;8.530;2023-07-16T12:46:07;5.30;;;2.53;;
5801;SDS011;2927;49.366;8.530;2023-07-16T12:48:34;6.23;;;3.00;;
5801;SDS011;2927;49.366;8.530;2023-07-16T12:50:59;4.00;;;2.07;;
5801;SDS011;2927;49.366;8.530;2023-07-16T12:53:25;6.40;;;2.53;;
5801;SDS011;2927;49.366;8.530;2023-07-16T12:55:51;2.87;;;1.90;;
5801;SDS011;2927;49.366;8.530;2023-07-16T12:58:17;5.07;;;3.10;;
5801;SDS011;2927;49.366;8.530;2023-07-16T13:00:43;8.97;;;2.77;;
5801;SDS011;2927;49.366;8.530;2023-07-16T13:03:09;2.70;;;2.47;;
5801;SDS011;2927;49.366;8.530;2023-07-16T13:05:39;4.57;;;2.57;;
5801;SDS011;2927;49.366;8.530;2023-07-16T13:08:08;4.33;;;2.27;;
5801;SDS011;2927;49.366;8.530;2023-07-16T13:10:34;8.83;;;2.47;;
5801;SDS011;2927;49.366;8.530;2023-07-16T13:13:00;2.30;;;2.10;;
5801;SDS011;2927;49.366;8.530;2023-07-16T13:15:25;3.30;;;2.20;;
5801;SDS011;2927;49.366;8.530;2023-07-16T13:17:51;5.47;;;2.57;;
5801;SDS011;2927;49.366;8.530;2023-07-16T13:20:17;8.93;;;3.87;;
5801;SDS011;2927;49.366;8.530;2023-07-16T13:22:43;5.53;;;2.70;;
5801;SDS011;2927;49.366;8.530;2023-07-16T13:25:09;3.50;;;2.30;;
5801;SDS011;2927;49.366;8.530;2023-07-16T13:27:34;5.07;;;2.53;;
5801;SDS011;2927;49.366;8.530;2023-07-16T13:30:00;4.47;;;2.40;;
5801;SDS011;2927;49.366;8.530;2023-07-16T13:32:26;3.23;;;2.43;;
5801;SDS011;2927;49.366;8.530;2023-07-16T13:34:51;2.90;;;2.50;;
5801;SDS011;2927;49.366;8.530;2023-07-16T13:37:17;5.43;;;2.40;;
5801;SDS011;2927;49.366;8.530;2023-07-16T13:39:42;3.80;;;2.60;;
5801;SDS011;2927;49.366;8.530;2023-07-16T13:42:08;4.53;;;2.73;;
5801;SDS011;2927;49.366;8.530;2023-07-16T13:44:36;4.63;;;2.37;;
5801;SDS011;2927;49.366;8.530;2023-07-16T13:47:01;6.40;;;3.13;;
5801;SDS011;2927;49.366;8.530;2023-07-16T13:49:27;3.53;;;2.47;;
5801;SDS011;2927;49.366;8.530;2023-07-16T13:51:52;6.53;;;2.90;;
5801;SDS011;2927;49.366;8.530;2023-07-16T13:54:18;5.00;;;2.50;;
5801;SDS011;2927;49.366;8.530;2023-07-16T13:56:44;4.77;;;2.27;;
5801;SDS011;2927;49.366;8.530;2023-07-16T13:59:09;4.60;;;2.37;;
5801;SDS011;2927;49.366;8.530;2023-07-16T14:01:39;7.03;;;3.27;;
5801;SDS011;2927;49.366;8.530;2023-07-16T14:04:05;4.90;;;2.70;;
5801;SDS011;2927;49.366;8.530;2023-07-16T14:06:31;4.63;;;2.97;;
5801;SDS011;2927;49.366;8.530;2023-07-16T14:08:57;6.50;;;3.00;;
5801;SDS011;2927;49.366;8.530;2023-07-16T14:11:23;6.00;;;3.13;;
5801;SDS011;2927;49.366;8.530;2023-07-16T14:13:49;10.37;;;3.10;;
5801;SDS011;2927;49.366;8.530;2023-07-16T14:16:22;10.23;;;2.60;;
5801;SDS011;2927;49.366;8.530;2023-07-16T14:18:49;7.80;;;2.30;;
5801;SDS011;2927;49.366;8.530;2023-07-16T14:21:17;6.43;;;2.97;;
5801;SDS011;2927;49.366;8.530;2023-07-16T14:23:42;4.87;;;2.50;;
5801;SDS011;2927;49.366;8.530;2023-07-16T14:26:08;4.83;;;2.80;;
5801;SDS011;2927;49.366;8.530;2023-07-16T14:28:34;5.33;;;2.77;;
5801;SDS011;2927;49.366;8.530;2023-07-16T14:30:59;6.00;;;3.20;;
5801;SDS011;2927;49.366;8.530;2023-07-16T14:33:25;5.70;;;2.80;;
5801;SDS011;2927;49.366;8.530;2023-07-16T14:35:50;5.43;;;3.30;;
5801;SDS011;2927;49.366;8.530;2023-07-16T14:38:16;4.50;;;2.53;;
5801;SDS011;2927;49.366;8.530;2023-07-16T14:40:41;9.63;;;3.33;;
5801;SDS011;2927;49.366;8.530;2023-07-16T14:43:07;4.53;;;2.90;;
5801;SDS011;2927;49.366;8.530;2023-07-16T14:45:34;5.53;;;2.97;;
5801;SDS011;2927;49.366;8.530;2023-07-16T14:48:00;5.30;;;2.93;;
5801;SDS011;2927;49.366;8.530;2023-07-16T14:50:25;4.03;;;2.50;;
5801;SDS011;2927;49.366;8.530;2023-07-16T14:52:51;6.97;;;3.40;;
5801;SDS011;2927;49.366;8.530;2023-07-16T14:55:17;9.53;;;2.90;;
5801;SDS011;2927;49.366;8.530;2023-07-16T14:57:42;5.80;;;2.90;;
5801;SDS011;2927;49.366;8.530;2023-07-16T15:00:09;5.97;;;3.07;;
5801;SDS011;2927;49.366;8.530;2023-07-16T15:02:38;10.73;;;3.07;;
5801;SDS011;2927;49.366;8.530;2023-07-16T15:05:04;5.20;;;2.77;;
5801;SDS011;2927;49.366;8.530;2023-07-16T15:07:30;8.83;;;3.20;;
5801;SDS011;2927;49.366;8.530;2023-07-16T15:09:56;5.13;;;3.33;;
5801;SDS011;2927;49.366;8.530;2023-07-16T15:12:21;6.00;;;2.53;;
5801;SDS011;2927;49.366;8.530;2023-07-16T15:14:47;8.77;;;3.23;;
5801;SDS011;2927;49.366;8.530;2023-07-16T15:17:13;7.90;;;3.20;;
5801;SDS011;2927;49.366;8.530;2023-07-16T15:19:39;8.30;;;3.40;;
5801;SDS011;2927;49.366;8.530;2023-07-16T15:22:05;5.67;;;3.10;;